sensor_id;sensor_type;location;lat;lon;timestamp;P1;durP1;ratioP1;P2;durP2;ratioP2
14294;SDS011;7231;59.370;18.016;2023-03-14T00:02:32;5.87;;;1.50;;
14294;SDS011;7231;59.370;18.016;2023-03-14T00:05:00;5.27;;;1.30;;
14294;SDS011;7231;59.370;18.016;2023-03-14T00:07:28;5.40;;;1.10;;
14294;SDS011;7231;59.370;18.016;2023-03-14T00:10:00;2.50;;;1.10;;
14294;SDS011;7231;59.370;18.016;2023-03-14T00:12:30;4.43;;;1.50;;
14294;SDS011;7231;59.370;18.016;2023-03-14T00:15:00;2.10;;;1.53;;
14294;SDS011;7231;59.370;18.016;2023-03-14T00:17:30;4.77;;;1.40;;
14294;SDS011;7231;59.370;18.016;2023-03-14T00:19:58;2.23;;;0.97;;
14294;SDS011;7231;59.370;18.016;2023-03-14T00:22:31;1.93;;;0.90;;
14294;SDS011;7231;59.370;18.016;2023-03-14T00:24:59;4.53;;;1.20;;
14294;SDS011;7231;59.370;18.016;2023-03-14T00:27:27;3.77;;;1.37;;
14294;SDS011;7231;59.370;18.016;2023-03-14T00:29:55;5.43;;;1.50;;
14294;SDS011;7231;59.370;18.016;2023-03-14T00:32:24;3.23;;;1.20;;
14294;SDS011;7231;59.370;18.016;2023-03-14T00:34:52;3.43;;;0.90;;
14294;SDS011;7231;59.370;18.016;2023-03-14T00:37:20;3.47;;;1.10;;
14294;SDS011;7231;59.370;18.016;2023-03-14T00:39:48;2.27;;;1.30;;
14294;SDS011;7231;59.370;18.016;2023-03-14T00:42:18;3.57;;;1.23;;
14294;SDS011;7231;59.370;18.016;2023-03-14T00:44:46;3.90;;;1.10;;
14294;SDS011;7231;59.370;18.016;2023-03-14T00:47:14;3.23;;;0.90;;
14294;SDS011;7231;59.370;18.016;2023-03-14T00:49:43;3.33;;;1.10;;
14294;SDS011;7231;59.370;18.016;2023-03-14T00:52:11;4.57;;;1.00;;
14294;SDS011;7231;59.370;18.016;2023-03-14T00:54:39;2.67;;;1.07;;
14294;SDS011;7231;59.370;18.016;2023-03-14T00:57:07;3.27;;;1.27;;
14294;SDS011;7231;59.370;18.016;2023-03-14T00:59:35;2.93;;;1.00;;
14294;SDS011;7231;59.370;18.016;2023-03-14T01:02:03;3.40;;;1.03;;
14294;SDS011;7231;59.370;18.016;2023-03-14T01:04:31;1.63;;;0.80;;
14294;SDS011;7231;59.370;18.016;2023-03-14T01:07:01;3.73;;;1.10;;
14294;SDS011;7231;59.370;18.016;2023-03-14T01:09:28;1.63;;;0.97;;
14294;SDS011;7231;59.370;18.016;2023-03-14T01:11:56;2.37;;;1.00;;
14294;SDS011;7231;59.370;18.016;2023-03-14T01:14:24;3.13;;;0.87;;
14294;SDS011;7231;59.370;18.016;2023-03-14T01:16:52;1.83;;;0.80;;
14294;SDS011;7231;59.370;18.016;2023-03-14T01:19:20;4.20;;;1.00;;
14294;SDS011;7231;59.370;18.016;2023-03-14T01:21:48;4.73;;;1.00;;
14294;SDS011;7231;59.370;18.016;2023-03-14T01:24:17;4.17;;;1.03;;
14294;SDS011;7231;59.370;18.016;2023-03-14T01:26:45;3.70;;;0.90;;
14294;SDS011;7231;59.370;18.016;2023-03-14T01:29:13;3.43;;;1.03;;
14294;SDS011;7231;59.370;18.016;2023-03-14T01:31:41;2.27;;;0.90;;
14294;SDS011;7231;59.370;18.016;2023-03-14T01:34:09;1.40;;;0.63;;
14294;SDS011;7231;59.370;18.016;2023-03-14T01:36:37;4.00;;;0.80;;
14294;SDS011;7231;59.370;18.016;2023-03-14T01:39:05;2.03;;;0.80;;
14294;SDS011;7231;59.370;18.016;2023-03-14T01:41:35;1.70;;;0.73;;
14294;SDS011;7231;59.370;18.016;2023-03-14T01:44:04;1.87;;;0.70;;
14294;SDS011;7231;59.370;18.016;2023-03-14T01:46:34;2.43;;;0.80;;
14294;SDS011;7231;59.370;18.016;2023-03-14T01:49:15;2.23;;;0.83;;
14294;SDS011;7231;59.370;18.016;2023-03-14T01:51:49;1.40;;;0.60;;
14294;SDS011;7231;59.370;18.016;2023-03-14T01:54:24;2.10;;;0.70;;
14294;SDS011;7231;59.370;18.016;2023-03-14T01:56:57;1.63;;;0.50;;
14294;SDS011;7231;59.370;18.016;2023-03-14T01:59:32;2.73;;;0.50;;
14294;SDS011;7231;59.370;18.016;2023-03-14T02:02:02;1.80;;;0.50;;
14294;SDS011;7231;59.370;18.016;2023-03-14T02:04:34;2.00;;;0.60;;
14294;SDS011;7231;59.370;18.016;2023-03-14T02:07:04;2.83;;;0.67;;
14294;SDS011;7231;59.370;18.016;2023-03-14T02:09:35;2.07;;;0.60;;
14294;SDS011;7231;59.370;18.016;2023-03-14T02:12:05;1.70;;;0.63;;
14294;SDS011;7231;59.370;18.016;2023-03-14T02:14:36;0.90;;;0.50;;
14294;SDS011;7231;59.370;18.016;2023-03-14T02:17:05;1.43;;;0.53;;
14294;SDS011;7231;59.370;18.016;2023-03-14T02:19:37;1.43;;;0.60;;
14294;SDS011;7231;59.370;18.016;2023-03-14T02:22:17;2.73;;;0.50;;
14294;SDS011;7231;59.370;18.016;2023-03-14T02:24:46;3.07;;;0.50;;
14294;SDS011;7231;59.370;18.016;2023-03-14T02:27:27;4.07;;;0.87;;
14294;SDS011;7231;59.370;18.016;2023-03-14T02:29:56;3.67;;;0.67;;
14294;SDS011;7231;59.370;18.016;2023-03-14T02:32:27;2.60;;;0.70;;
14294;SDS011;7231;59.370;18.016;2023-03-14T02:34:59;1.03;;;0.50;;
14294;SDS011;7231;59.370;18.016;2023-03-14T02:37:32;1.97;;;0.80;;
14294;SDS011;7231;59.370;18.016;2023-03-14T02:40:03;1.37;;;0.50;;
14294;SDS011;7231;59.370;18.016;2023-03-14T02:42:33;4.47;;;0.80;;
14294;SDS011;7231;59.370;18.016;2023-03-14T02:45:25;2.30;;;0.60;;
14294;SDS011;7231;59.370;18.016;2023-03-14T02:48:02;1.50;;;0.60;;
14294;SDS011;7231;59.370;18.016;2023-03-14T02:50:33;1.70;;;0.50;;
14294;SDS011;7231;59.370;18.016;2023-03-14T02:53:02;2.40;;;0.77;;
14294;SDS011;7231;59.370;18.016;2023-03-14T02:55:30;2.97;;;0.60;;
14294;SDS011;7231;59.370;18.016;2023-03-14T02:57:59;2.07;;;0.70;;
14294;SDS011;7231;59.370;18.016;2023-03-14T03:00:27;3.33;;;0.67;;
14294;SDS011;7231;59.370;18.016;2023-03-14T03:02:56;2.77;;;0.83;;
14294;SDS011;7231;59.370;18.016;2023-03-14T03:05:24;2.10;;;0.53;;
14294;SDS011;7231;59.370;18.016;2023-03-14T03:07:52;2.83;;;0.77;;
14294;SDS011;7231;59.370;18.016;2023-03-14T03:10:20;2.40;;;0.60;;
14294;SDS011;7231;59.370;18.016;2023-03-14T03:12:48;1.80;;;0.80;;
14294;SDS011;7231;59.370;18.016;2023-03-14T03:15:19;3.27;;;0.90;;
14294;SDS011;7231;59.370;18.016;2023-03-14T03:17:46;1.43;;;0.70;;
14294;SDS011;7231;59.370;18.016;2023-03-14T03:20:15;1.53;;;0.70;;
14294;SDS011;7231;59.370;18.016;2023-03-14T03:22:43;1.93;;;0.70;;
14294;SDS011;7231;59.370;18.016;2023-03-14T03:25:11;3.10;;;0.50;;
14294;SDS011;7231;59.370;18.016;2023-03-14T03:27:38;2.90;;;0.40;;
14294;SDS011;7231;59.370;18.016;2023-03-14T03:30:07;1.77;;;0.50;;
14294;SDS011;7231;59.370;18.016;2023-03-14T03:32:37;1.33;;;0.30;;
14294;SDS011;7231;59.370;18.016;2023-03-14T03:35:05;0.87;;;0.40;;
14294;SDS011;7231;59.370;18.016;2023-03-14T03:37:34;0.83;;;0.33;;
14294;SDS011;7231;59.370;18.016;2023-03-14T03:40:03;1.03;;;0.40;;
14294;SDS011;7231;59.370;18.016;2023-03-14T03:42:32;0.90;;;0.60;;
14294;SDS011;7231;59.370;18.016;2023-03-14T03:45:01;0.77;;;0.40;;
14294;SDS011;7231;59.370;18.016;2023-03-14T03:47:29;1.23;;;0.40;;
14294;SDS011;7231;59.370;18.016;2023-03-14T03:49:59;0.53;;;0.50;;
14294;SDS011;7231;59.370;18.016;2023-03-14T03:52:27;1.80;;;0.30;;
14294;SDS011;7231;59.370;18.016;2023-03-14T03:54:54;1.63;;;0.40;;
14294;SDS011;7231;59.370;18.016;2023-03-14T03:57:22;1.80;;;0.40;;
14294;SDS011;7231;59.370;18.016;2023-03-14T03:59:50;0.43;;;0.30;;
14294;SDS011;7231;59.370;18.016;2023-03-14T04:02:18;1.77;;;0.60;;
14294;SDS011;7231;59.370;18.016;2023-03-14T04:04:46;1.07;;;0.27;;
14294;SDS011;7231;59.370;18.016;2023-03-14T04:07:16;0.90;;;0.50;;
14294;SDS011;7231;59.370;18.016;2023-03-14T04:09:43;1.00;;;0.40;;
14294;SDS011;7231;59.370;18.016;2023-03-14T04:12:11;1.60;;;0.50;;
14294;SDS011;7231;59.370;18.016;2023-03-14T04:14:39;2.27;;;0.30;;
14294;SDS011;7231;59.370;18.016;2023-03-14T04:17:08;2.80;;;0.60;;
14294;SDS011;7231;59.370;18.016;2023-03-14T04:19:36;0.73;;;0.30;;
14294;SDS011;7231;59.370;18.016;2023-03-14T04:22:04;1.57;;;0.80;;
14294;SDS011;7231;59.370;18.016;2023-03-14T04:24:33;1.20;;;0.60;;
14294;SDS011;7231;59.370;18.016;2023-03-14T04:27:01;2.47;;;0.50;;
14294;SDS011;7231;59.370;18.016;2023-03-14T04:29:29;2.53;;;0.50;;
14294;SDS011;7231;59.370;18.016;2023-03-14T04:31:57;1.30;;;0.40;;
14294;SDS011;7231;59.370;18.016;2023-03-14T04:34:25;1.80;;;0.50;;
14294;SDS011;7231;59.370;18.016;2023-03-14T04:36:53;3.33;;;0.63;;
14294;SDS011;7231;59.370;18.016;2023-03-14T04:39:20;2.40;;;0.83;;
14294;SDS011;7231;59.370;18.016;2023-03-14T04:41:50;1.17;;;0.47;;
14294;SDS011;7231;59.370;18.016;2023-03-14T04:44:18;1.07;;;0.60;;
14294;SDS011;7231;59.370;18.016;2023-03-14T04:46:46;0.77;;;0.40;;
14294;SDS011;7231;59.370;18.016;2023-03-14T04:49:14;1.37;;;0.57;;
14294;SDS011;7231;59.370;18.016;2023-03-14T04:51:42;2.57;;;0.60;;
14294;SDS011;7231;59.370;18.016;2023-03-14T04:54:10;1.23;;;0.50;;
14294;SDS011;7231;59.370;18.016;2023-03-14T04:56:38;3.93;;;0.90;;
14294;SDS011;7231;59.370;18.016;2023-03-14T04:59:08;2.20;;;0.70;;
14294;SDS011;7231;59.370;18.016;2023-03-14T05:01:35;1.03;;;0.47;;
14294;SDS011;7231;59.370;18.016;2023-03-14T05:04:03;1.30;;;0.50;;
14294;SDS011;7231;59.370;18.016;2023-03-14T05:06:31;1.73;;;0.60;;
14294;SDS011;7231;59.370;18.016;2023-03-14T05:08:59;3.17;;;1.10;;
14294;SDS011;7231;59.370;18.016;2023-03-14T05:11:29;2.50;;;0.40;;
14294;SDS011;7231;59.370;18.016;2023-03-14T05:13:57;3.63;;;0.83;;
14294;SDS011;7231;59.370;18.016;2023-03-14T05:16:26;3.23;;;0.70;;
14294;SDS011;7231;59.370;18.016;2023-03-14T05:18:54;2.10;;;0.60;;
14294;SDS011;7231;59.370;18.016;2023-03-14T05:21:22;2.00;;;0.80;;
14294;SDS011;7231;59.370;18.016;2023-03-14T05:23:50;1.83;;;0.70;;
14294;SDS011;7231;59.370;18.016;2023-03-14T05:26:18;3.27;;;0.87;;
14294;SDS011;7231;59.370;18.016;2023-03-14T05:28:46;3.50;;;0.90;;
14294;SDS011;7231;59.370;18.016;2023-03-14T05:31:14;2.30;;;0.50;;
14294;SDS011;7231;59.370;18.016;2023-03-14T05:33:43;3.50;;;1.00;;
14294;SDS011;7231;59.370;18.016;2023-03-14T05:36:11;3.23;;;0.70;;
14294;SDS011;7231;59.370;18.016;2023-03-14T05:38:39;3.95;;;0.93;;
14294;SDS011;7231;59.370;18.016;2023-03-14T05:41:07;5.07;;;0.63;;
14294;SDS011;7231;59.370;18.016;2023-03-14T05:43:35;3.73;;;0.97;;
14294;SDS011;7231;59.370;18.016;2023-03-14T05:46:03;3.13;;;0.87;;
14294;SDS011;7231;59.370;18.016;2023-03-14T05:48:32;3.07;;;0.80;;
14294;SDS011;7231;59.370;18.016;2023-03-14T05:51:01;2.60;;;0.90;;
14294;SDS011;7231;59.370;18.016;2023-03-14T05:53:29;3.50;;;1.10;;
14294;SDS011;7231;59.370;18.016;2023-03-14T05:55:57;3.30;;;0.73;;
14294;SDS011;7231;59.370;18.016;2023-03-14T05:58:25;2.60;;;0.83;;
14294;SDS011;7231;59.370;18.016;2023-03-14T06:00:53;1.87;;;0.90;;
14294;SDS011;7231;59.370;18.016;2023-03-14T06:03:21;2.23;;;0.60;;
14294;SDS011;7231;59.370;18.016;2023-03-14T06:05:49;5.13;;;0.90;;
14294;SDS011;7231;59.370;18.016;2023-03-14T06:08:19;4.50;;;0.63;;
14294;SDS011;7231;59.370;18.016;2023-03-14T06:10:47;4.90;;;1.07;;
14294;SDS011;7231;59.370;18.016;2023-03-14T06:13:15;2.33;;;0.80;;
14294;SDS011;7231;59.370;18.016;2023-03-14T06:15:43;4.40;;;1.10;;
14294;SDS011;7231;59.370;18.016;2023-03-14T06:18:11;3.53;;;0.80;;
14294;SDS011;7231;59.370;18.016;2023-03-14T06:20:40;10.33;;;1.10;;
14294;SDS011;7231;59.370;18.016;2023-03-14T06:23:08;6.30;;;1.00;;
14294;SDS011;7231;59.370;18.016;2023-03-14T06:25:38;4.20;;;1.00;;
14294;SDS011;7231;59.370;18.016;2023-03-14T06:28:06;3.93;;;0.90;;
14294;SDS011;7231;59.370;18.016;2023-03-14T06:30:33;5.30;;;1.37;;
14294;SDS011;7231;59.370;18.016;2023-03-14T06:33:01;3.63;;;0.90;;
14294;SDS011;7231;59.370;18.016;2023-03-14T06:35:30;2.73;;;0.97;;
14294;SDS011;7231;59.370;18.016;2023-03-14T06:37:58;3.00;;;1.20;;
14294;SDS011;7231;59.370;18.016;2023-03-14T06:40:26;5.17;;;1.30;;
14294;SDS011;7231;59.370;18.016;2023-03-14T06:42:55;3.13;;;1.00;;
14294;SDS011;7231;59.370;18.016;2023-03-14T06:45:23;4.00;;;0.90;;
14294;SDS011;7231;59.370;18.016;2023-03-14T06:47:51;3.27;;;1.17;;
14294;SDS011;7231;59.370;18.016;2023-03-14T06:50:19;1.40;;;0.50;;
14294;SDS011;7231;59.370;18.016;2023-03-14T06:52:48;2.47;;;0.60;;
14294;SDS011;7231;59.370;18.016;2023-03-14T06:55:16;1.67;;;0.70;;
14294;SDS011;7231;59.370;18.016;2023-03-14T06:57:47;4.23;;;0.77;;
14294;SDS011;7231;59.370;18.016;2023-03-14T07:00:17;2.83;;;0.93;;
14294;SDS011;7231;59.370;18.016;2023-03-14T07:02:46;3.90;;;1.47;;
14294;SDS011;7231;59.370;18.016;2023-03-14T07:05:17;3.27;;;0.70;;
14294;SDS011;7231;59.370;18.016;2023-03-14T07:07:45;2.60;;;0.80;;
14294;SDS011;7231;59.370;18.016;2023-03-14T07:10:13;2.00;;;0.53;;
14294;SDS011;7231;59.370;18.016;2023-03-14T07:12:42;1.23;;;0.40;;
14294;SDS011;7231;59.370;18.016;2023-03-14T07:15:10;1.93;;;0.50;;
14294;SDS011;7231;59.370;18.016;2023-03-14T07:17:46;1.63;;;0.73;;
14294;SDS011;7231;59.370;18.016;2023-03-14T07:20:15;1.10;;;0.70;;
14294;SDS011;7231;59.370;18.016;2023-03-14T07:22:45;2.10;;;0.60;;
14294;SDS011;7231;59.370;18.016;2023-03-14T07:25:15;0.87;;;0.40;;
14294;SDS011;7231;59.370;18.016;2023-03-14T07:27:43;3.03;;;0.70;;
14294;SDS011;7231;59.370;18.016;2023-03-14T07:30:12;2.40;;;0.70;;
14294;SDS011;7231;59.370;18.016;2023-03-14T07:32:40;2.30;;;0.60;;
14294;SDS011;7231;59.370;18.016;2023-03-14T07:35:10;2.83;;;0.60;;
14294;SDS011;7231;59.370;18.016;2023-03-14T07:37:38;4.07;;;0.67;;
14294;SDS011;7231;59.370;18.016;2023-03-14T07:40:06;3.20;;;0.80;;
14294;SDS011;7231;59.370;18.016;2023-03-14T07:42:36;2.07;;;0.50;;
14294;SDS011;7231;59.370;18.016;2023-03-14T07:45:05;3.17;;;0.60;;
14294;SDS011;7231;59.370;18.016;2023-03-14T07:47:34;0.77;;;0.40;;
14294;SDS011;7231;59.370;18.016;2023-03-14T07:50:02;1.67;;;0.60;;
14294;SDS011;7231;59.370;18.016;2023-03-14T07:52:32;1.60;;;0.50;;
14294;SDS011;7231;59.370;18.016;2023-03-14T07:55:00;0.93;;;0.43;;
14294;SDS011;7231;59.370;18.016;2023-03-14T07:57:28;0.40;;;0.20;;
14294;SDS011;7231;59.370;18.016;2023-03-14T07:59:56;2.65;;;0.73;;
14294;SDS011;7231;59.370;18.016;2023-03-14T08:02:24;1.58;;;0.50;;
14294;SDS011;7231;59.370;18.016;2023-03-14T08:04:52;0.75;;;0.32;;
14294;SDS011;7231;59.370;18.016;2023-03-14T08:07:20;1.63;;;0.40;;
14294;SDS011;7231;59.370;18.016;2023-03-14T08:09:49;3.13;;;0.43;;
14294;SDS011;7231;59.370;18.016;2023-03-14T08:12:17;3.63;;;0.40;;
14294;SDS011;7231;59.370;18.016;2023-03-14T08:14:45;2.63;;;0.30;;
14294;SDS011;7231;59.370;18.016;2023-03-14T08:17:13;0.85;;;0.40;;
14294;SDS011;7231;59.370;18.016;2023-03-14T08:19:41;0.70;;;0.38;;
14294;SDS011;7231;59.370;18.016;2023-03-14T08:22:09;0.68;;;0.40;;
14294;SDS011;7231;59.370;18.016;2023-03-14T08:24:37;1.07;;;0.30;;
14294;SDS011;7231;59.370;18.016;2023-03-14T08:27:06;1.03;;;0.50;;
14294;SDS011;7231;59.370;18.016;2023-03-14T08:29:36;0.30;;;0.30;;
14294;SDS011;7231;59.370;18.016;2023-03-14T08:32:04;1.03;;;0.30;;
14294;SDS011;7231;59.370;18.016;2023-03-14T08:34:32;0.53;;;0.47;;
14294;SDS011;7231;59.370;18.016;2023-03-14T08:37:01;0.67;;;0.30;;
14294;SDS011;7231;59.370;18.016;2023-03-14T08:39:36;0.40;;;0.30;;
14294;SDS011;7231;59.370;18.016;2023-03-14T08:42:04;0.30;;;0.23;;
14294;SDS011;7231;59.370;18.016;2023-03-14T08:44:33;0.30;;;0.30;;
14294;SDS011;7231;59.370;18.016;2023-03-14T08:47:01;0.67;;;0.27;;
14294;SDS011;7231;59.370;18.016;2023-03-14T08:49:29;0.70;;;0.23;;
14294;SDS011;7231;59.370;18.016;2023-03-14T08:51:57;0.60;;;0.30;;
14294;SDS011;7231;59.370;18.016;2023-03-14T08:54:26;0.20;;;0.20;;
14294;SDS011;7231;59.370;18.016;2023-03-14T08:56:54;0.63;;;0.30;;
14294;SDS011;7231;59.370;18.016;2023-03-14T08:59:22;0.77;;;0.45;;
14294;SDS011;7231;59.370;18.016;2023-03-14T09:01:52;1.65;;;0.30;;
14294;SDS011;7231;59.370;18.016;2023-03-14T09:04:21;1.25;;;0.30;;
14294;SDS011;7231;59.370;18.016;2023-03-14T09:06:49;0.25;;;0.25;;
14294;SDS011;7231;59.370;18.016;2023-03-14T09:09:16;0.88;;;0.30;;
14294;SDS011;7231;59.370;18.016;2023-03-14T09:11:45;0.55;;;0.30;;
14294;SDS011;7231;59.370;18.016;2023-03-14T09:14:12;0.52;;;0.20;;
14294;SDS011;7231;59.370;18.016;2023-03-14T09:16:41;2.72;;;0.30;;
14294;SDS011;7231;59.370;18.016;2023-03-14T09:19:10;1.65;;;0.40;;
14294;SDS011;7231;59.370;18.016;2023-03-14T09:21:38;0.95;;;0.30;;
14294;SDS011;7231;59.370;18.016;2023-03-14T09:24:06;0.60;;;0.30;;
14294;SDS011;7231;59.370;18.016;2023-03-14T09:26:34;0.30;;;0.30;;
14294;SDS011;7231;59.370;18.016;2023-03-14T09:29:02;0.82;;;0.28;;
14294;SDS011;7231;59.370;18.016;2023-03-14T09:31:30;0.38;;;0.20;;
14294;SDS011;7231;59.370;18.016;2023-03-14T09:33:58;0.20;;;0.20;;
14294;SDS011;7231;59.370;18.016;2023-03-14T09:36:28;0.40;;;0.30;;
14294;SDS011;7231;59.370;18.016;2023-03-14T09:38:56;2.47;;;0.30;;
14294;SDS011;7231;59.370;18.016;2023-03-14T09:41:25;0.88;;;0.28;;
14294;SDS011;7231;59.370;18.016;2023-03-14T09:43:57;0.35;;;0.20;;
14294;SDS011;7231;59.370;18.016;2023-03-14T09:46:30;1.48;;;0.40;;
14294;SDS011;7231;59.370;18.016;2023-03-14T09:49:02;0.30;;;0.20;;
14294;SDS011;7231;59.370;18.016;2023-03-14T09:51:39;0.43;;;0.13;;
14294;SDS011;7231;59.370;18.016;2023-03-14T09:54:14;0.30;;;0.20;;
14294;SDS011;7231;59.370;18.016;2023-03-14T09:56:51;0.20;;;0.20;;
14294;SDS011;7231;59.370;18.016;2023-03-14T09:59:19;0.85;;;0.35;;
14294;SDS011;7231;59.370;18.016;2023-03-14T10:01:47;2.28;;;0.98;;
14294;SDS011;7231;59.370;18.016;2023-03-14T10:04:17;0.32;;;0.32;;
14294;SDS011;7231;59.370;18.016;2023-03-14T10:06:51;0.30;;;0.30;;
14294;SDS011;7231;59.370;18.016;2023-03-14T10:09:20;0.40;;;0.10;;
14294;SDS011;7231;59.370;18.016;2023-03-14T10:11:53;0.98;;;0.40;;
14294;SDS011;7231;59.370;18.016;2023-03-14T10:14:29;1.10;;;0.47;;
14294;SDS011;7231;59.370;18.016;2023-03-14T10:17:04;0.77;;;0.55;;
14294;SDS011;7231;59.370;18.016;2023-03-14T10:19:34;1.08;;;0.60;;
14294;SDS011;7231;59.370;18.016;2023-03-14T10:22:04;1.05;;;0.40;;
14294;SDS011;7231;59.370;18.016;2023-03-14T10:24:34;0.60;;;0.45;;
14294;SDS011;7231;59.370;18.016;2023-03-14T10:27:03;0.57;;;0.40;;
14294;SDS011;7231;59.370;18.016;2023-03-14T10:29:33;0.57;;;0.40;;
14294;SDS011;7231;59.370;18.016;2023-03-14T10:32:02;0.60;;;0.60;;
14294;SDS011;7231;59.370;18.016;2023-03-14T10:34:34;2.92;;;0.30;;
14294;SDS011;7231;59.370;18.016;2023-03-14T10:37:07;0.57;;;0.32;;
14294;SDS011;7231;59.370;18.016;2023-03-14T10:39:45;0.43;;;0.43;;
14294;SDS011;7231;59.370;18.016;2023-03-14T10:42:16;1.67;;;0.57;;
14294;SDS011;7231;59.370;18.016;2023-03-14T10:44:49;0.40;;;0.38;;
14294;SDS011;7231;59.370;18.016;2023-03-14T10:47:22;1.65;;;0.50;;
14294;SDS011;7231;59.370;18.016;2023-03-14T10:49:52;0.73;;;0.47;;
14294;SDS011;7231;59.370;18.016;2023-03-14T10:52:23;0.45;;;0.45;;
14294;SDS011;7231;59.370;18.016;2023-03-14T10:55:08;0.88;;;0.60;;
14294;SDS011;7231;59.370;18.016;2023-03-14T10:57:39;0.75;;;0.45;;
14294;SDS011;7231;59.370;18.016;2023-03-14T11:00:11;1.45;;;0.60;;
14294;SDS011;7231;59.370;18.016;2023-03-14T11:02:47;0.95;;;0.52;;
14294;SDS011;7231;59.370;18.016;2023-03-14T11:05:24;0.98;;;0.52;;
14294;SDS011;7231;59.370;18.016;2023-03-14T11:08:01;0.55;;;0.50;;
14294;SDS011;7231;59.370;18.016;2023-03-14T11:10:33;0.57;;;0.40;;
14294;SDS011;7231;59.370;18.016;2023-03-14T11:13:07;0.52;;;0.40;;
14294;SDS011;7231;59.370;18.016;2023-03-14T11:15:45;0.50;;;0.47;;
14294;SDS011;7231;59.370;18.016;2023-03-14T11:18:36;0.30;;;0.30;;
14294;SDS011;7231;59.370;18.016;2023-03-14T11:21:17;1.23;;;0.40;;
14294;SDS011;7231;59.370;18.016;2023-03-14T11:23:55;1.08;;;0.50;;
14294;SDS011;7231;59.370;18.016;2023-03-14T11:26:36;2.35;;;0.40;;
14294;SDS011;7231;59.370;18.016;2023-03-14T11:29:13;1.15;;;0.70;;
14294;SDS011;7231;59.370;18.016;2023-03-14T11:31:48;0.90;;;0.40;;
14294;SDS011;7231;59.370;18.016;2023-03-14T11:34:17;0.60;;;0.30;;
14294;SDS011;7231;59.370;18.016;2023-03-14T11:36:51;1.05;;;0.30;;
14294;SDS011;7231;59.370;18.016;2023-03-14T11:39:22;0.40;;;0.30;;
14294;SDS011;7231;59.370;18.016;2023-03-14T11:41:53;0.43;;;0.30;;
14294;SDS011;7231;59.370;18.016;2023-03-14T11:44:32;0.30;;;0.30;;
14294;SDS011;7231;59.370;18.016;2023-03-14T11:47:05;0.43;;;0.28;;
14294;SDS011;7231;59.370;18.016;2023-03-14T11:49:39;0.20;;;0.20;;
14294;SDS011;7231;59.370;18.016;2023-03-14T11:52:13;0.50;;;0.40;;
14294;SDS011;7231;59.370;18.016;2023-03-14T11:54:47;0.20;;;0.20;;
14294;SDS011;7231;59.370;18.016;2023-03-14T11:57:21;0.60;;;0.30;;
14294;SDS011;7231;59.370;18.016;2023-03-14T11:59:52;0.30;;;0.30;;
14294;SDS011;7231;59.370;18.016;2023-03-14T12:02:27;0.22;;;0.22;;
14294;SDS011;7231;59.370;18.016;2023-03-14T12:08:03;0.30;;;0.30;;
14294;SDS011;7231;59.370;18.016;2023-03-14T12:10:59;0.40;;;0.40;;
14294;SDS011;7231;59.370;18.016;2023-03-14T12:13:31;0.93;;;0.40;;
14294;SDS011;7231;59.370;18.016;2023-03-14T12:16:04;0.50;;;0.40;;
14294;SDS011;7231;59.370;18.016;2023-03-14T12:18:34;0.90;;;0.50;;
14294;SDS011;7231;59.370;18.016;2023-03-14T12:21:05;0.50;;;0.30;;
14294;SDS011;7231;59.370;18.016;2023-03-14T12:23:36;0.97;;;0.50;;
14294;SDS011;7231;59.370;18.016;2023-03-14T12:26:14;0.23;;;0.23;;
14294;SDS011;7231;59.370;18.016;2023-03-14T12:28:48;0.40;;;0.33;;
14294;SDS011;7231;59.370;18.016;2023-03-14T12:31:37;0.30;;;0.30;;
14294;SDS011;7231;59.370;18.016;2023-03-14T12:39:49;1.43;;;0.40;;
14294;SDS011;7231;59.370;18.016;2023-03-14T12:42:43;0.70;;;0.40;;
14294;SDS011;7231;59.370;18.016;2023-03-14T12:45:23;0.60;;;0.60;;
14294;SDS011;7231;59.370;18.016;2023-03-14T12:47:54;0.83;;;0.50;;
14294;SDS011;7231;59.370;18.016;2023-03-14T12:50:38;0.70;;;0.60;;
14294;SDS011;7231;59.370;18.016;2023-03-14T12:53:20;2.40;;;0.60;;
14294;SDS011;7231;59.370;18.016;2023-03-14T12:56:11;0.90;;;0.63;;
14294;SDS011;7231;59.370;18.016;2023-03-14T12:58:50;0.77;;;0.40;;
14294;SDS011;7231;59.370;18.016;2023-03-14T13:01:28;0.93;;;0.50;;
14294;SDS011;7231;59.370;18.016;2023-03-14T13:03:56;0.47;;;0.47;;
14294;SDS011;7231;59.370;18.016;2023-03-14T13:09:36;1.87;;;0.50;;
14294;SDS011;7231;59.370;18.016;2023-03-14T13:12:22;1.07;;;0.57;;
14294;SDS011;7231;59.370;18.016;2023-03-14T13:14:57;0.40;;;0.40;;
14294;SDS011;7231;59.370;18.016;2023-03-14T13:17:27;0.50;;;0.50;;
14294;SDS011;7231;59.370;18.016;2023-03-14T13:20:03;1.10;;;0.63;;
14294;SDS011;7231;59.370;18.016;2023-03-14T13:22:39;0.70;;;0.57;;
14294;SDS011;7231;59.370;18.016;2023-03-14T13:25:15;0.93;;;0.70;;
14294;SDS011;7231;59.370;18.016;2023-03-14T13:27:45;2.77;;;1.03;;
14294;SDS011;7231;59.370;18.016;2023-03-14T13:30:15;1.27;;;0.83;;
14294;SDS011;7231;59.370;18.016;2023-03-14T13:32:46;1.03;;;0.83;;
14294;SDS011;7231;59.370;18.016;2023-03-14T13:35:19;1.10;;;0.80;;
14294;SDS011;7231;59.370;18.016;2023-03-14T13:37:56;1.40;;;0.63;;
14294;SDS011;7231;59.370;18.016;2023-03-14T13:40:36;1.57;;;0.90;;
14294;SDS011;7231;59.370;18.016;2023-03-14T13:43:10;0.97;;;0.87;;
14294;SDS011;7231;59.370;18.016;2023-03-14T13:45:50;4.00;;;0.90;;
14294;SDS011;7231;59.370;18.016;2023-03-14T13:48:20;0.77;;;0.70;;
14294;SDS011;7231;59.370;18.016;2023-03-14T13:50:50;0.80;;;0.80;;
14294;SDS011;7231;59.370;18.016;2023-03-14T13:53:20;1.00;;;0.90;;
14294;SDS011;7231;59.370;18.016;2023-03-14T13:55:49;0.80;;;0.80;;
14294;SDS011;7231;59.370;18.016;2023-03-14T13:58:24;1.80;;;0.67;;
14294;SDS011;7231;59.370;18.016;2023-03-14T14:00:57;2.00;;;0.57;;
14294;SDS011;7231;59.370;18.016;2023-03-14T14:03:27;0.63;;;0.60;;
14294;SDS011;7231;59.370;18.016;2023-03-14T14:05:57;0.80;;;0.63;;
14294;SDS011;7231;59.370;18.016;2023-03-14T14:08:26;1.90;;;0.93;;
14294;SDS011;7231;59.370;18.016;2023-03-14T14:10:56;1.33;;;0.80;;
14294;SDS011;7231;59.370;18.016;2023-03-14T14:13:27;0.70;;;0.70;;
14294;SDS011;7231;59.370;18.016;2023-03-14T14:16:01;1.10;;;0.73;;
14294;SDS011;7231;59.370;18.016;2023-03-14T14:18:31;1.00;;;0.90;;
14294;SDS011;7231;59.370;18.016;2023-03-14T14:21:00;0.93;;;0.80;;
14294;SDS011;7231;59.370;18.016;2023-03-14T14:23:30;0.60;;;0.60;;
14294;SDS011;7231;59.370;18.016;2023-03-14T14:25:58;1.13;;;0.57;;
14294;SDS011;7231;59.370;18.016;2023-03-14T14:28:27;1.60;;;0.83;;
14294;SDS011;7231;59.370;18.016;2023-03-14T14:31:06;0.57;;;0.57;;
14294;SDS011;7231;59.370;18.016;2023-03-14T14:33:52;2.10;;;0.60;;
14294;SDS011;7231;59.370;18.016;2023-03-14T14:36:22;0.63;;;0.60;;
14294;SDS011;7231;59.370;18.016;2023-03-14T14:38:52;0.67;;;0.67;;
14294;SDS011;7231;59.370;18.016;2023-03-14T14:41:21;3.60;;;0.93;;
14294;SDS011;7231;59.370;18.016;2023-03-14T14:43:53;1.97;;;1.07;;
14294;SDS011;7231;59.370;18.016;2023-03-14T14:46:25;2.40;;;1.10;;
14294;SDS011;7231;59.370;18.016;2023-03-14T14:48:56;1.63;;;1.20;;
14294;SDS011;7231;59.370;18.016;2023-03-14T14:51:25;1.53;;;1.07;;
14294;SDS011;7231;59.370;18.016;2023-03-14T14:54:02;4.40;;;1.00;;
14294;SDS011;7231;59.370;18.016;2023-03-14T14:56:34;3.43;;;0.83;;
14294;SDS011;7231;59.370;18.016;2023-03-14T14:59:04;0.80;;;0.80;;
14294;SDS011;7231;59.370;18.016;2023-03-14T15:01:36;1.13;;;0.83;;
14294;SDS011;7231;59.370;18.016;2023-03-14T15:04:09;1.10;;;1.00;;
14294;SDS011;7231;59.370;18.016;2023-03-14T15:06:41;2.37;;;0.93;;
14294;SDS011;7231;59.370;18.016;2023-03-14T15:09:11;0.97;;;0.90;;
14294;SDS011;7231;59.370;18.016;2023-03-14T15:11:39;1.20;;;1.00;;
14294;SDS011;7231;59.370;18.016;2023-03-14T15:14:06;1.20;;;1.10;;
14294;SDS011;7231;59.370;18.016;2023-03-14T15:16:36;1.27;;;1.00;;
14294;SDS011;7231;59.370;18.016;2023-03-14T15:19:09;2.90;;;1.20;;
14294;SDS011;7231;59.370;18.016;2023-03-14T15:21:50;2.03;;;1.10;;